Szolnok, Hungary

10:41 AM CEST on April 24, 2017 (GMT +0200)
Szolnok | | Change Station

Elev 282 ft 47.17 °N, 20.18 °E | Updated 13 seconds ago

Clear
Clear
52.7 °F
Feels Like 52.7 °F
N
3.2
Wind Variable Wind from North
Gusts 12.0 mph

Today
High -- | Low -- °F
--% Chance of Precip.
Yesterday
High -- | Low -- °F
Precip. -- in
Pressure 30.18 in
Visibility 6.2 miles
Clouds Scattered Clouds 4500 ft
Dew Point 31 °F
Humidity 44%
Rainfall 0.00 in
Snow Depth Not available.
5:34 AM 7:40 PM
Waning Crescent, 6% visible
METAR LHBP 240830Z 32005KT 250V350 9999 SCT045 10/00 Q1022 NOSIG
Pressure 30.18 in
Visibility 6.2 miles
Clouds Scattered Clouds 4500 ft
Dew Point 31 °F
Humidity 44%
Rainfall 0.00 in
Snow Depth Not available.
5:34 AM 7:40 PM
Waning Crescent, 6% visible
METAR LHBP 240830Z 32005KT 250V350 9999 SCT045 10/00 Q1022 NOSIG

Get Severe Weather Alerts

Thanks for signing up!

Be on the lookout for a verification email in your inbox.

You'll start receiving the daily forecast at 8 AM.

×

10-Day Weather Forecast

×

Almanac

Astronomy

Apr. 24, 2017 Rise Set
Actual Time
Civil Twilight
Nautical Twilight
Astronomical Twilight
Moon
Length of Visible Light
Length of Day
Tomorrow will be .
, % of the Moon is Illuminated

Today's Extremes

Country Highs Country Lows

Community

WunderPhotos

WunderBlog® & News

Nearby

Air Quality

  Air Quality AQ Index Pollutant
Not available.

Snow Depth

Station Depth Elevation

Earthquake Activity

City Distance Mag. Time & Date
Minimum magnitude displayed is 2.5.

Coastal Water Temperatures

Place Temperature

Stations

Nearby Weather Stations

Station Location Temp. Windchill Dew Point Humidity Wind Precip. Elev Updated Type